Time;durP1;ratioP1;P1;durP2;ratioP2;P2;SDS_P1;SDS_P2;PMS_P1;PMS_P2;Temp;Humidity;BMP_temperature;BMP_pressure;BME280_temperature;BME280_humidity;BME280_pressure;Samples;Min_cycle;Max_cycle;Signal;HPM_P1;HPM_P2
2022/02/12 00:02:25;;;;;;;14.35;8.27;;;-0.20;99.90;;;;;;5080568;28;20287;-73
2022/02/12 00:04:51;;;;;;;12.20;6.90;;;-0.20;99.90;;;;;;5080076;28;20203;-73
2022/02/12 00:07:18;;;;;;;15.40;7.70;;;-0.30;99.90;;;;;;5078108;28;20231;-73
2022/02/12 00:09:44;;;;;;;12.15;6.43;;;-0.40;99.90;;;;;;5078817;28;20211;-73
2022/02/12 00:12:11;;;;;;;15.65;7.47;;;-0.40;99.90;;;;;;5079478;28;20219;-73
2022/02/12 00:14:37;;;;;;;11.65;6.95;;;-0.40;99.90;;;;;;5079335;28;20224;-73
2022/02/12 00:17:04;;;;;;;20.55;7.35;;;-0.40;99.90;;;;;;5080027;28;20202;-72
2022/02/12 00:19:30;;;;;;;16.83;8.90;;;-0.30;99.90;;;;;;5079730;28;20200;-73
2022/02/12 00:21:57;;;;;;;13.57;8.23;;;-0.20;99.90;;;;;;5079778;28;20192;-74
2022/02/12 00:24:23;;;;;;;13.23;7.45;;;-0.20;99.90;;;;;;5079143;28;20712;-74
2022/02/12 00:26:50;;;;;;;16.00;9.68;;;-0.20;99.90;;;;;;5078903;28;20200;-73
2022/02/12 00:29:16;;;;;;;15.98;6.93;;;-0.10;99.90;;;;;;5080077;28;20263;-74
2022/02/12 00:31:43;;;;;;;12.15;7.35;;;-0.10;99.90;;;;;;5080623;28;20259;-73
2022/02/12 00:34:09;;;;;;;18.17;6.32;;;-0.10;99.90;;;;;;5080925;28;20246;-73
2022/02/12 00:36:36;;;;;;;14.05;5.45;;;-0.10;99.90;;;;;;5080870;28;20211;-74
2022/02/12 00:39:04;;;;;;;19.58;8.57;;;-0.10;99.90;;;;;;5080193;28;20199;-74
2022/02/12 00:41:31;;;;;;;19.17;9.32;;;-0.10;99.90;;;;;;5079985;28;20215;-74
2022/02/12 00:43:58;;;;;;;18.20;6.40;;;-0.10;99.90;;;;;;5080653;28;20261;-73
2022/02/12 00:46:24;;;;;;;11.68;5.70;;;0.00;99.90;;;;;;5081020;28;20278;-72
2022/02/12 00:48:51;;;;;;;11.95;5.30;;;0.00;99.90;;;;;;5082037;28;20565;-73
2022/02/12 00:51:17;;;;;;;17.27;7.90;;;0.00;99.90;;;;;;5082094;28;20286;-74
2022/02/12 00:53:44;;;;;;;19.27;7.22;;;0.00;99.90;;;;;;5080369;28;20276;-72
2022/02/12 00:56:11;;;;;;;12.38;6.25;;;0.10;99.90;;;;;;5081727;28;20283;-72
2022/02/12 00:58:37;;;;;;;21.48;7.35;;;0.10;99.90;;;;;;5079498;28;20283;-73
2022/02/12 01:01:04;;;;;;;16.80;6.60;;;0.10;99.90;;;;;;5079496;28;20237;-73
2022/02/12 01:03:30;;;;;;;10.75;6.00;;;0.10;99.90;;;;;;5079330;28;20212;-73
2022/02/12 01:05:57;;;;;;;11.75;6.18;;;0.10;99.90;;;;;;5079170;28;20230;-73
2022/02/12 01:08:24;;;;;;;15.73;6.72;;;0.10;99.90;;;;;;5080652;28;20208;-75
2022/02/12 01:10:50;;;;;;;20.95;6.03;;;0.10;99.90;;;;;;5080125;28;20313;-74
2022/02/12 01:13:17;;;;;;;12.57;5.55;;;0.00;99.90;;;;;;5080327;28;20747;-73
2022/02/12 01:15:44;;;;;;;8.05;5.00;;;0.00;99.90;;;;;;5063236;28;20204;-73
2022/02/12 01:18:11;;;;;;;8.85;5.30;;;0.00;99.90;;;;;;5081203;28;20268;-73
2022/02/12 01:20:39;;;;;;;11.23;5.53;;;-0.10;99.90;;;;;;5082334;28;20275;-73
2022/02/12 01:23:06;;;;;;;14.50;5.15;;;-0.10;99.90;;;;;;5079286;28;20211;-72
2022/02/12 01:25:33;;;;;;;8.32;4.50;;;-0.10;99.90;;;;;;5080665;28;20283;-73
2022/02/12 01:28:00;;;;;;;15.38;4.57;;;0.00;99.90;;;;;;5079011;28;20291;-74
2022/02/12 01:30:26;;;;;;;14.60;5.65;;;0.00;99.90;;;;;;5080403;28;20208;-74
2022/02/12 01:32:53;;;;;;;11.60;5.43;;;-0.10;99.90;;;;;;5077122;28;20277;-73
2022/02/12 01:35:23;;;;;;;13.57;4.93;;;-0.20;99.90;;;;;;5078691;28;20225;-74
2022/02/12 01:37:52;;;;;;;10.57;5.18;;;-0.20;99.90;;;;;;5077589;28;20234;-74
2022/02/12 01:40:24;;;;;;;12.15;4.65;;;-0.20;99.90;;;;;;5078596;28;20192;-74
2022/02/12 01:42:52;;;;;;;7.63;4.57;;;-0.20;99.90;;;;;;5078420;28;20176;-74
2022/02/12 01:45:19;;;;;;;13.13;5.10;;;-0.30;99.90;;;;;;5077700;28;20220;-74
2022/02/12 01:47:45;;;;;;;13.57;5.13;;;-0.30;99.90;;;;;;5078763;28;20238;-74
2022/02/12 01:50:12;;;;;;;8.20;4.88;;;-0.30;99.90;;;;;;5077515;28;20271;-74
2022/02/12 01:52:40;;;;;;;15.05;4.95;;;-0.30;99.90;;;;;;5076108;28;20208;-73
2022/02/12 01:55:07;;;;;;;9.98;4.57;;;-0.30;99.90;;;;;;5077751;28;20216;-73
2022/02/12 01:57:36;;;;;;;8.73;4.55;;;-0.30;99.90;;;;;;5077522;28;20204;-73
2022/02/12 02:00:08;;;;;;;10.88;4.88;;;-0.30;99.90;;;;;;5076320;28;20643;-74
2022/02/12 02:02:37;;;;;;;13.98;5.30;;;-0.30;99.90;;;;;;5076388;28;20625;-73
2022/02/12 02:05:09;;;;;;;10.23;5.10;;;-0.40;99.90;;;;;;5059034;28;20200;-74
2022/02/12 02:07:37;;;;;;;12.40;4.80;;;-0.40;99.90;;;;;;5075536;28;20307;-74
2022/02/12 02:10:04;;;;;;;21.60;5.45;;;-0.30;99.90;;;;;;5078187;28;20207;-73
2022/02/12 02:12:31;;;;;;;11.48;6.03;;;-0.20;99.90;;;;;;5078116;28;20290;-73
2022/02/12 02:14:58;;;;;;;10.77;5.85;;;-0.20;99.90;;;;;;5077483;28;20631;-73
2022/02/12 02:17:24;;;;;;;18.20;6.30;;;-0.30;99.90;;;;;;5077972;28;20279;-74
2022/02/12 02:19:51;;;;;;;9.75;6.80;;;-0.40;99.90;;;;;;5077512;28;20204;-73
2022/02/12 02:22:24;;;;;;;13.50;7.18;;;-0.50;99.90;;;;;;5077149;28;20204;-73
2022/02/12 02:24:51;;;;;;;13.30;6.78;;;-0.50;99.90;;;;;;5077046;28;20212;-74
2022/02/12 02:27:20;;;;;;;12.38;6.75;;;-0.50;99.90;;;;;;5076578;28;20203;-74
2022/02/12 02:29:46;;;;;;;15.80;6.38;;;-0.60;99.90;;;;;;5078548;28;20559;-73
2022/02/12 02:32:14;;;;;;;16.20;6.97;;;-0.60;99.90;;;;;;5076845;28;20207;-73
2022/02/12 02:34:52;;;;;;;13.40;7.38;;;-0.70;99.90;;;;;;5079301;28;20200;-73
2022/02/12 02:37:20;;;;;;;16.15;8.27;;;-0.70;99.90;;;;;;5079185;28;20679;-74
2022/02/12 02:39:47;;;;;;;18.25;7.05;;;-0.80;99.90;;;;;;5078935;28;20207;-74
2022/02/12 02:42:14;;;;;;;11.77;6.72;;;-0.70;99.90;;;;;;5078665;28;20199;-74
2022/02/12 02:44:40;;;;;;;14.07;7.05;;;-0.70;99.90;;;;;;5077778;28;20283;-73
2022/02/12 02:49:52;;;;;;;15.85;6.50;;;-0.70;99.90;;;;;;5078882;28;20276;-73
2022/02/12 02:57:51;;;;;;;10.95;7.00;;;-0.90;99.90;;;;;;5080533;28;20262;-73
2022/02/12 03:00:18;;;;;;;23.70;7.80;;;-0.90;99.90;;;;;;5079986;28;20191;-74
2022/02/12 03:02:46;;;;;;;13.45;6.97;;;-0.90;99.90;;;;;;5078404;28;20191;-74
2022/02/12 03:05:13;;;;;;;11.38;7.03;;;-0.80;99.90;;;;;;5076777;28;20204;-73
2022/02/12 03:07:39;;;;;;;8.82;6.57;;;-0.70;99.90;;;;;;5078272;28;20231;-73
2022/02/12 03:10:08;;;;;;;12.90;7.13;;;-0.80;99.90;;;;;;5078631;28;20633;-73
2022/02/12 03:12:35;;;;;;;15.48;6.65;;;-0.80;99.90;;;;;;5078713;28;20260;-73
2022/02/12 03:15:03;;;;;;;15.57;7.18;;;-0.90;99.90;;;;;;5080356;28;20302;-73
2022/02/12 03:17:29;;;;;;;15.68;6.65;;;-0.90;99.90;;;;;;5078907;28;20742;-73
2022/02/12 03:19:56;;;;;;;17.95;6.43;;;-1.00;99.90;;;;;;5079628;28;20283;-73
2022/02/12 03:22:22;;;;;;;25.13;6.60;;;-1.00;99.90;;;;;;5080529;28;20196;-74
2022/02/12 03:24:49;;;;;;;11.15;7.07;;;-1.10;99.90;;;;;;5077757;28;20203;-73
2022/02/12 03:27:15;;;;;;;18.25;8.00;;;-1.20;99.90;;;;;;5077629;28;20667;-73
2022/02/12 03:29:42;;;;;;;16.77;7.68;;;-1.10;99.90;;;;;;5079210;28;20287;-73
2022/02/12 03:32:09;;;;;;;15.20;7.22;;;-1.20;99.90;;;;;;5078805;28;20576;-73
2022/02/12 03:34:35;;;;;;;19.00;8.02;;;-1.20;99.90;;;;;;5079716;28;20219;-73
2022/02/12 03:37:02;;;;;;;12.88;8.70;;;-1.20;99.90;;;;;;5079734;28;20196;-72
2022/02/12 03:39:29;;;;;;;19.20;9.50;;;-1.20;99.90;;;;;;5077770;28;20226;-72
2022/02/12 03:41:55;;;;;;;16.23;9.07;;;-1.20;99.90;;;;;;5078534;28;20188;-73
2022/02/12 03:44:22;;;;;;;24.35;9.20;;;-1.20;99.90;;;;;;5079630;28;20196;-73
2022/02/12 03:46:48;;;;;;;18.58;9.35;;;-1.20;99.90;;;;;;5079145;28;20237;-73
2022/02/12 03:49:15;;;;;;;21.45;9.18;;;-1.20;99.90;;;;;;5080102;28;20290;-73
2022/02/12 03:51:41;;;;;;;16.30;8.63;;;-1.20;99.90;;;;;;5080170;28;20207;-73
2022/02/12 03:54:08;;;;;;;27.05;9.35;;;-1.20;99.90;;;;;;5080669;28;20228;-73
2022/02/12 03:56:34;;;;;;;15.40;9.18;;;-1.20;99.90;;;;;;5061758;28;20284;-73
2022/02/12 03:59:01;;;;;;;15.38;9.50;;;-1.20;99.90;;;;;;5078724;28;20283;-73
2022/02/12 04:01:28;;;;;;;15.52;9.02;;;-1.30;99.90;;;;;;5077932;28;20203;-73
2022/02/12 04:03:54;;;;;;;16.65;10.15;;;-1.30;99.90;;;;;;5079572;28;20204;-73
2022/02/12 04:06:20;;;;;;;14.63;9.75;;;-1.20;99.90;;;;;;5080001;28;20298;-73
2022/02/12 04:08:47;;;;;;;21.27;10.70;;;-1.20;99.90;;;;;;5079867;28;20211;-73
2022/02/12 04:11:13;;;;;;;27.83;10.38;;;-1.30;99.90;;;;;;5082459;28;20341;-73
2022/02/12 04:13:41;;;;;;;18.50;10.68;;;-1.30;99.90;;;;;;5083533;28;20267;-73
2022/02/12 04:16:08;;;;;;;20.98;10.23;;;-1.30;99.90;;;;;;5082869;28;20298;-74
2022/02/12 04:18:34;;;;;;;21.52;10.38;;;-1.30;99.90;;;;;;5082357;28;20198;-73
2022/02/12 04:21:01;;;;;;;25.63;10.45;;;-1.30;99.90;;;;;;5063979;28;20204;-73
2022/02/12 04:23:27;;;;;;;17.95;9.95;;;-1.30;99.90;;;;;;5080320;28;20223;-73
2022/02/12 04:25:54;;;;;;;20.60;10.32;;;-1.30;99.90;;;;;;5080298;28;20215;-73
2022/02/12 04:28:20;;;;;;;19.33;11.07;;;-1.30;99.90;;;;;;5080161;28;20208;-74
2022/02/12 04:30:47;;;;;;;17.63;11.02;;;-1.30;99.90;;;;;;5080226;28;20195;-73
2022/02/12 04:33:13;;;;;;;19.95;11.18;;;-1.30;99.90;;;;;;5080817;28;20762;-73
2022/02/12 04:35:40;;;;;;;18.80;11.82;;;-1.30;99.90;;;;;;5080829;28;20212;-72
2022/02/12 04:38:07;;;;;;;23.75;12.05;;;-1.30;99.90;;;;;;5079474;28;20200;-73
2022/02/12 04:40:33;;;;;;;16.80;11.68;;;-1.30;99.90;;;;;;5080305;28;20544;-73
2022/02/12 04:43:00;;;;;;;22.83;12.45;;;-1.30;99.90;;;;;;5079609;28;20196;-73
2022/02/12 04:45:27;;;;;;;22.17;12.32;;;-1.30;99.90;;;;;;5079308;28;20663;-73
2022/02/12 04:47:53;;;;;;;35.15;13.70;;;-1.30;99.90;;;;;;5081007;28;20200;-73
2022/02/12 04:50:20;;;;;;;24.35;13.75;;;-1.30;99.90;;;;;;5081837;28;20722;-73
2022/02/12 04:52:47;;;;;;;26.45;13.13;;;-1.30;99.90;;;;;;5081673;28;20282;-73
2022/02/12 04:55:13;;;;;;;28.73;14.02;;;-1.30;99.90;;;;;;5081402;28;20226;-74
2022/02/12 04:57:40;;;;;;;27.25;13.57;;;-1.20;99.90;;;;;;5081771;28;20260;-73
2022/02/12 05:00:07;;;;;;;23.67;13.70;;;-1.30;99.90;;;;;;5081278;28;20555;-73
2022/02/12 05:02:35;;;;;;;28.88;13.75;;;-1.20;99.90;;;;;;5082060;28;20486;-73
2022/02/12 05:05:03;;;;;;;25.50;13.70;;;-1.20;99.90;;;;;;5080849;28;20617;-73
2022/02/12 05:07:30;;;;;;;21.40;11.57;;;-1.30;99.90;;;;;;5080267;28;20311;-73
2022/02/12 05:09:56;;;;;;;20.90;13.10;;;-1.30;99.90;;;;;;5080437;28;20204;-73
2022/02/12 05:12:23;;;;;;;25.77;15.13;;;-1.40;99.90;;;;;;5080185;28;20563;-73
2022/02/12 05:14:49;;;;;;;21.27;13.32;;;-1.40;99.90;;;;;;5080624;28;20220;-73
2022/02/12 05:17:16;;;;;;;24.33;14.50;;;-1.40;99.90;;;;;;5080430;28;20200;-73
2022/02/12 05:19:42;;;;;;;20.85;12.90;;;-1.40;99.90;;;;;;5080733;28;20279;-73
2022/02/12 05:22:09;;;;;;;25.77;12.80;;;-1.50;99.90;;;;;;5078973;28;20765;-73
2022/02/12 05:24:35;;;;;;;24.95;12.57;;;-1.50;99.90;;;;;;5077994;28;20287;-73
2022/02/12 05:27:02;;;;;;;24.75;13.35;;;-1.50;99.90;;;;;;5079133;28;20671;-73
2022/02/12 05:29:30;;;;;;;23.58;12.85;;;-1.50;99.90;;;;;;5078968;28;20208;-74
2022/02/12 05:31:56;;;;;;;18.70;12.43;;;-1.50;99.90;;;;;;5079982;28;20675;-74
2022/02/12 05:34:23;;;;;;;27.83;12.40;;;-1.50;99.90;;;;;;5079022;28;20232;-73
2022/02/12 05:36:49;;;;;;;24.73;14.95;;;-1.50;99.90;;;;;;5078943;28;20290;-74
2022/02/12 05:39:17;;;;;;;24.65;14.75;;;-1.60;99.90;;;;;;5079616;28;20215;-74
2022/02/12 05:41:44;;;;;;;28.33;17.40;;;-1.50;99.90;;;;;;5079197;28;20196;-73
2022/02/12 05:44:11;;;;;;;27.65;15.45;;;-1.60;99.90;;;;;;5079120;28;20321;-74
2022/02/12 05:46:38;;;;;;;29.27;16.60;;;-1.50;99.90;;;;;;5078124;28;20274;-73
2022/02/12 05:49:06;;;;;;;22.13;12.98;;;-1.50;99.90;;;;;;5078910;28;20275;-74
2022/02/12 05:51:33;;;;;;;25.13;14.05;;;-1.50;99.90;;;;;;5077190;28;20317;-74
2022/02/12 05:54:01;;;;;;;30.42;15.88;;;-1.50;99.90;;;;;;5076998;28;20694;-73
2022/02/12 05:56:29;;;;;;;29.67;15.85;;;-1.50;99.90;;;;;;5077079;28;20216;-73
2022/02/12 05:58:57;;;;;;;31.65;13.82;;;-1.50;99.90;;;;;;5077640;28;20204;-73
2022/02/12 06:01:24;;;;;;;36.28;17.85;;;-1.50;99.90;;;;;;5078802;28;20627;-73
2022/02/12 06:03:50;;;;;;;31.30;16.35;;;-1.60;99.90;;;;;;5078455;28;20279;-73
2022/02/12 06:06:17;;;;;;;31.33;15.88;;;-1.60;99.90;;;;;;5078112;28;20303;-73
2022/02/12 06:08:44;;;;;;;26.23;15.52;;;-1.50;99.90;;;;;;5043430;28;20608;-73
2022/02/12 06:11:11;;;;;;;31.48;16.23;;;-1.50;99.90;;;;;;5077989;28;20203;-73
2022/02/12 06:13:37;;;;;;;23.42;16.48;;;-1.50;99.90;;;;;;5076934;28;20200;-73
2022/02/12 06:16:05;;;;;;;30.88;14.52;;;-1.50;99.90;;;;;;5076489;28;20220;-73
2022/02/12 06:18:31;;;;;;;21.45;14.85;;;-1.50;99.90;;;;;;5077066;28;20199;-73
2022/02/12 06:20:58;;;;;;;28.02;15.63;;;-1.60;99.90;;;;;;5076451;28;20196;-73
2022/02/12 06:23:25;;;;;;;26.95;14.20;;;-1.60;99.90;;;;;;5075550;28;20248;-72
2022/02/12 06:25:51;;;;;;;24.35;14.40;;;-1.60;99.90;;;;;;5075314;28;20211;-73
2022/02/12 06:28:18;;;;;;;25.23;14.52;;;-1.60;99.90;;;;;;5076506;28;20204;-73
2022/02/12 06:30:44;;;;;;;32.58;16.42;;;-1.60;99.90;;;;;;5077540;28;20283;-73
2022/02/12 06:33:11;;;;;;;32.67;16.00;;;-1.70;99.90;;;;;;5077055;28;20333;-73
2022/02/12 06:35:37;;;;;;;24.35;12.95;;;-1.70;99.90;;;;;;5077037;28;20227;-74
2022/02/12 06:38:04;;;;;;;27.05;17.17;;;-1.70;99.90;;;;;;5075645;28;20196;-73
2022/02/12 06:40:31;;;;;;;35.00;16.20;;;-1.60;99.90;;;;;;5076928;28;20204;-73
2022/02/12 06:42:57;;;;;;;28.55;17.35;;;-1.60;99.90;;;;;;5076732;28;20196;-73
2022/02/12 06:45:24;;;;;;;24.77;16.55;;;-1.60;99.90;;;;;;5077138;28;20203;-73
2022/02/12 06:47:50;;;;;;;23.95;16.00;;;-1.60;99.90;;;;;;5077793;28;20298;-74
2022/02/12 06:50:17;;;;;;;31.58;17.20;;;-1.60;99.90;;;;;;5076269;28;20204;-73
2022/02/12 06:52:44;;;;;;;34.88;17.20;;;-1.60;99.90;;;;;;5077301;28;20233;-73
2022/02/12 06:55:11;;;;;;;26.67;16.77;;;-1.60;99.90;;;;;;5076012;28;20219;-73
2022/02/12 06:57:38;;;;;;;45.15;18.83;;;-1.60;99.90;;;;;;5076287;28;20200;-73
2022/02/12 07:00:06;;;;;;;30.35;16.05;;;-1.50;99.90;;;;;;5075689;28;20202;-73
2022/02/12 07:02:32;;;;;;;30.63;16.65;;;-1.50;99.90;;;;;;5076254;28;20200;-73
2022/02/12 07:05:00;;;;;;;28.95;16.33;;;-1.50;99.90;;;;;;5076448;28;20689;-74
2022/02/12 07:07:27;;;;;;;24.88;15.13;;;-1.50;99.90;;;;;;5077814;28;20306;-72
2022/02/12 07:09:53;;;;;;;25.13;14.63;;;-1.50;99.90;;;;;;5077313;28;20200;-72
2022/02/12 07:12:20;;;;;;;28.95;16.35;;;-1.50;99.90;;;;;;5077431;28;20633;-73
2022/02/12 07:14:46;;;;;;;32.78;15.88;;;-1.40;99.90;;;;;;5076983;28;20231;-73
2022/02/12 07:17:13;;;;;;;31.85;17.58;;;-1.40;99.90;;;;;;5077893;28;20196;-73
2022/02/12 07:19:40;;;;;;;29.30;16.17;;;-1.30;99.90;;;;;;5076802;28;20253;-73
2022/02/12 07:22:06;;;;;;;32.22;15.13;;;-1.30;99.90;;;;;;5078081;28;20223;-73
2022/02/12 07:24:33;;;;;;;26.35;15.20;;;-1.30;99.90;;;;;;5076527;28;20196;-73
2022/02/12 07:26:59;;;;;;;34.65;16.05;;;-1.30;99.90;;;;;;5076111;28;20203;-72
2022/02/12 07:29:26;;;;;;;28.02;16.25;;;-1.20;99.90;;;;;;5076986;28;20282;-73
2022/02/12 07:31:52;;;;;;;35.28;18.63;;;-1.20;99.90;;;;;;5078364;28;20287;-73
2022/02/12 07:34:19;;;;;;;25.60;16.52;;;-1.10;99.90;;;;;;5078765;28;20227;-73
2022/02/12 07:36:46;;;;;;;28.55;14.38;;;-1.10;99.90;;;;;;5079383;28;20300;-73
2022/02/12 07:39:13;;;;;;;28.10;15.32;;;-1.00;99.90;;;;;;5078878;28;20196;-73
2022/02/12 07:41:39;;;;;;;34.83;15.25;;;-1.00;99.90;;;;;;5078945;28;20208;-73
2022/02/12 07:44:06;;;;;;;30.23;16.65;;;-1.00;99.90;;;;;;5076288;28;20196;-73
2022/02/12 07:46:33;;;;;;;28.77;15.10;;;-0.90;99.90;;;;;;5081827;28;20278;-73
2022/02/12 07:48:59;;;;;;;25.63;15.88;;;-0.90;99.90;;;;;;5080377;28;20208;-73
2022/02/12 07:51:26;;;;;;;31.05;17.60;;;-0.80;99.90;;;;;;5081670;28;20212;-73
2022/02/12 07:53:53;;;;;;;31.13;16.95;;;-0.80;99.90;;;;;;5064216;28;20263;-72
2022/02/12 07:56:19;;;;;;;44.28;17.67;;;-0.70;99.90;;;;;;5082756;28;20623;-73
2022/02/12 07:58:46;;;;;;;28.67;17.35;;;-0.60;99.90;;;;;;5081753;28;20571;-74
2022/02/12 08:01:14;;;;;;;28.58;15.60;;;-0.60;99.90;;;;;;5081965;28;20206;-73
2022/02/12 08:03:41;;;;;;;29.05;17.17;;;-0.60;99.90;;;;;;5046943;28;20330;-74
2022/02/12 08:07:27;;;;;;;25.88;15.45;;;-0.70;99.90;;;;;;5082392;28;20307;-74
2022/02/12 08:08:55;;;;;;;26.80;16.02;;;-0.70;99.90;;;;;;5080060;28;20313;-73
2022/02/12 08:11:26;;;;;;;26.85;15.30;;;-0.60;99.90;;;;;;5081757;28;20278;-74
2022/02/12 08:13:53;;;;;;;31.35;15.18;;;-0.60;99.90;;;;;;5081572;28;20200;-74
2022/02/12 08:16:20;;;;;;;26.70;13.25;;;-0.50;99.90;;;;;;5080895;28;20363;-73
2022/02/12 08:18:47;;;;;;;30.63;17.13;;;-0.50;99.90;;;;;;5079784;28;20200;-73
2022/02/12 08:21:13;;;;;;;36.90;17.02;;;-0.50;99.90;;;;;;5079669;28;20251;-73
2022/02/12 08:23:40;;;;;;;26.52;16.35;;;-0.40;99.90;;;;;;5081616;28;20199;-74
2022/02/12 08:26:07;;;;;;;24.40;16.88;;;-0.30;99.90;;;;;;5080520;28;20260;-74
2022/02/12 08:28:34;;;;;;;31.60;18.33;;;-0.20;99.90;;;;;;5081281;28;20567;-73
2022/02/12 08:31:00;;;;;;;26.75;17.42;;;-0.10;99.90;;;;;;5081377;28;20208;-74
2022/02/12 08:33:27;;;;;;;28.48;16.90;;;0.10;99.90;;;;;;5081711;28;20762;-73
2022/02/12 08:35:54;;;;;;;29.15;16.67;;;0.10;99.90;;;;;;5082339;28;20216;-73
2022/02/12 08:38:20;;;;;;;29.70;16.70;;;0.10;99.90;;;;;;5083413;28;20199;-73
2022/02/12 08:40:47;;;;;;;24.92;15.68;;;0.20;99.90;;;;;;5082260;28;20222;-73
2022/02/12 08:43:14;;;;;;;21.25;14.48;;;0.30;99.90;;;;;;5082491;28;20348;-73
2022/02/12 08:45:40;;;;;;;28.10;16.73;;;0.30;99.90;;;;;;5082562;28;20200;-73
2022/02/12 08:48:09;;;;;;;31.25;22.55;;;0.30;99.90;;;;;;5081560;28;20674;-73
2022/02/12 08:50:37;;;;;;;35.42;16.75;;;0.50;99.90;;;;;;5082471;28;20200;-73
2022/02/12 08:53:05;;;;;;;26.98;15.82;;;0.60;99.90;;;;;;5080496;28;20350;-73
2022/02/12 08:55:32;;;;;;;28.33;17.48;;;0.60;99.90;;;;;;5081250;28;20247;-72
2022/02/12 08:57:59;;;;;;;29.08;15.55;;;0.60;99.90;;;;;;5082045;28;20275;-73
2022/02/12 09:00:25;;;;;;;25.17;15.80;;;0.80;99.90;;;;;;5082552;28;20282;-74
2022/02/12 09:02:52;;;;;;;24.73;14.52;;;0.90;99.90;;;;;;5082793;28;20565;-73
2022/02/12 09:05:20;;;;;;;21.30;14.48;;;0.90;99.90;;;;;;5083779;28;20311;-74
2022/02/12 09:07:46;;;;;;;25.70;15.05;;;0.90;99.90;;;;;;5083099;28;20664;-73
2022/02/12 09:10:13;;;;;;;24.63;14.13;;;1.00;99.90;;;;;;5082168;28;20204;-74
2022/02/12 09:12:39;;;;;;;19.77;14.38;;;1.10;99.90;;;;;;5080937;28;20212;-73
2022/02/12 09:15:07;;;;;;;20.42;14.82;;;1.00;99.90;;;;;;5065240;28;20282;-73
2022/02/12 09:17:34;;;;;;;18.85;11.02;;;1.20;99.90;;;;;;5081510;28;20714;-73
2022/02/12 09:20:00;;;;;;;19.27;14.05;;;1.20;99.90;;;;;;5063274;28;20223;-73
2022/02/12 09:22:27;;;;;;;20.17;13.38;;;1.20;99.90;;;;;;5081035;28;20279;-72
2022/02/12 09:24:54;;;;;;;20.05;11.82;;;1.30;99.90;;;;;;5076427;28;20571;-72
2022/02/12 09:27:20;;;;;;;23.20;12.10;;;1.40;99.90;;;;;;5077659;28;20207;-72
2022/02/12 09:29:48;;;;;;;14.98;11.90;;;1.50;99.90;;;;;;5077609;28;20608;-73
2022/02/12 09:32:16;;;;;;;19.63;12.60;;;1.60;99.90;;;;;;5076744;28;20199;-73
2022/02/12 09:34:42;;;;;;;24.08;12.85;;;1.60;99.90;;;;;;5077208;28;20208;-73
2022/02/12 09:37:09;;;;;;;14.98;10.80;;;1.70;99.90;;;;;;5076595;28;20417;-73
2022/02/12 09:39:35;;;;;;;19.40;13.05;;;1.70;99.90;;;;;;5076156;28;20196;-73
2022/02/12 09:42:02;;;;;;;23.90;11.20;;;1.80;99.90;;;;;;5074796;28;20207;-72
2022/02/12 09:44:29;;;;;;;25.95;12.30;;;1.90;99.90;;;;;;5075257;28;20208;-74
2022/02/12 09:47:16;;;;;;;22.75;11.70;;;1.90;99.90;;;;;;5077241;28;20206;-72
2022/02/12 09:49:44;;;;;;;38.38;11.90;;;2.00;99.90;;;;;;5075323;28;20207;-73
2022/02/12 09:52:15;;;;;;;26.33;11.07;;;2.10;99.90;;;;;;5075889;28;20200;-75
2022/02/12 09:54:43;;;;;;;24.13;11.73;;;2.20;99.90;;;;;;5076480;28;20620;-72
2022/02/12 09:57:10;;;;;;;15.00;11.05;;;2.10;99.90;;;;;;5074859;28;20218;-73
2022/02/12 09:59:37;;;;;;;15.40;11.43;;;2.30;99.90;;;;;;5058323;28;20257;-72
2022/02/12 10:02:04;;;;;;;17.40;12.43;;;2.30;99.90;;;;;;5077128;28;20207;-73
2022/02/12 10:04:31;;;;;;;33.97;11.80;;;2.40;99.90;;;;;;5076371;28;20711;-72
2022/02/12 10:06:58;;;;;;;23.70;12.90;;;2.50;99.90;;;;;;5076302;28;20280;-72
2022/02/12 10:09:25;;;;;;;17.08;11.15;;;2.60;99.90;;;;;;5075205;28;20215;-72
2022/02/12 10:11:54;;;;;;;22.23;12.98;;;2.80;99.90;;;;;;5076861;28;20241;-73
2022/02/12 10:14:26;;;;;;;18.30;10.80;;;3.00;99.90;;;;;;5075557;28;20204;-73
2022/02/12 10:17:05;;;;;;;17.25;10.20;;;3.00;99.90;;;;;;5075345;28;20223;-73
2022/02/12 10:19:43;;;;;;;16.42;10.20;;;2.70;99.90;;;;;;5077259;28;20184;-74
2022/02/12 10:22:20;;;;;;;12.07;8.77;;;2.70;99.90;;;;;;5078283;28;20284;-75
2022/02/12 10:25:05;;;;;;;15.68;9.48;;;2.90;99.90;;;;;;5079602;28;20729;-74
2022/02/12 10:27:34;;;;;;;15.93;10.10;;;3.00;99.90;;;;;;5077807;28;20223;-75
2022/02/12 10:30:03;;;;;;;18.13;11.13;;;3.00;99.90;;;;;;5078672;28;20670;-75
2022/02/12 10:32:30;;;;;;;16.05;10.60;;;3.20;99.90;;;;;;5077694;28;20588;-74
2022/02/12 10:34:57;;;;;;;18.00;10.05;;;3.50;99.90;;;;;;5077521;28;20279;-72
2022/02/12 10:37:24;;;;;;;16.35;10.52;;;3.40;99.90;;;;;;5078692;28;20230;-73
2022/02/12 10:40:00;;;;;;;18.23;10.15;;;3.40;99.90;;;;;;5076914;28;20196;-73
2022/02/12 10:42:31;;;;;;;19.95;10.65;;;3.40;99.90;;;;;;5078262;28;20278;-74
2022/02/12 10:44:58;;;;;;;12.15;8.98;;;3.40;99.90;;;;;;5077831;28;20282;-74
2022/02/12 10:47:24;;;;;;;17.05;10.15;;;3.60;99.90;;;;;;5079762;28;20212;-74
2022/02/12 10:49:51;;;;;;;15.27;8.15;;;3.70;99.90;;;;;;5080491;28;20211;-74
2022/02/12 10:52:19;;;;;;;17.48;11.35;;;3.90;99.90;;;;;;5078322;28;20234;-74
2022/02/12 10:54:49;;;;;;;20.70;10.60;;;4.00;99.90;;;;;;5079974;28;20211;-74
2022/02/12 10:57:17;;;;;;;15.40;9.48;;;4.20;99.90;;;;;;5077835;28;20219;-74
2022/02/12 10:59:44;;;;;;;17.15;8.93;;;4.30;99.90;;;;;;5077529;28;20206;-73
2022/02/12 11:02:17;;;;;;;12.55;9.45;;;4.30;99.90;;;;;;5076583;28;20203;-73
2022/02/12 11:04:46;;;;;;;16.55;10.50;;;4.40;99.90;;;;;;5076188;28;20184;-73
2022/02/12 11:07:15;;;;;;;13.95;9.23;;;4.70;99.90;;;;;;5074773;28;20224;-73
2022/02/12 11:09:46;;;;;;;11.35;8.65;;;5.00;99.90;;;;;;5076305;28;20211;-73
2022/02/12 11:12:14;;;;;;;14.88;8.82;;;5.20;99.90;;;;;;5074860;28;20204;-73
2022/02/12 11:14:47;;;;;;;17.05;9.60;;;5.80;99.90;;;;;;5075965;28;20204;-73
2022/02/12 11:17:16;;;;;;;12.63;8.73;;;6.30;99.90;;;;;;5076499;28;20226;-73
2022/02/12 11:19:44;;;;;;;16.10;8.35;;;6.50;99.90;;;;;;5079270;28;20776;-72
2022/02/12 11:22:12;;;;;;;18.80;9.65;;;6.30;99.90;;;;;;5078845;28;20283;-74
2022/02/12 11:24:46;;;;;;;10.55;6.88;;;5.60;99.90;;;;;;5081248;28;20543;-74
2022/02/12 11:27:22;;;;;;;13.50;8.40;;;6.00;99.90;;;;;;5081040;28;20196;-74
2022/02/12 11:29:51;;;;;;;12.32;8.88;;;6.30;99.90;;;;;;5080756;28;20192;-73
2022/02/12 11:32:19;;;;;;;9.50;8.40;;;6.60;99.90;;;;;;5079121;28;20639;-72
2022/02/12 11:34:55;;;;;;;20.10;9.13;;;6.80;99.90;;;;;;5081463;28;20557;-72
2022/02/12 11:37:22;;;;;;;13.38;7.85;;;7.10;99.90;;;;;;5081086;28;20219;-74
2022/02/12 11:40:10;;;;;;;9.27;6.90;;;7.40;99.90;;;;;;5081139;28;20200;-74
2022/02/12 11:42:58;;;;;;;9.63;7.80;;;7.30;99.90;;;;;;5080911;28;20548;-74
2022/02/12 11:45:37;;;;;;;14.23;7.90;;;7.70;99.90;;;;;;5079110;28;20207;-75
2022/02/12 11:48:27;;;;;;;18.13;9.68;;;7.90;99.90;;;;;;5079867;28;20647;-74
2022/02/12 11:51:10;;;;;;;13.18;8.65;;;7.90;99.90;;;;;;5076609;28;20329;-74
2022/02/12 11:53:43;;;;;;;9.38;8.27;;;8.00;99.90;;;;;;5079952;28;20200;-74
2022/02/12 11:56:20;;;;;;;9.85;8.18;;;7.80;99.90;;;;;;5078983;28;20250;-74
2022/02/12 11:58:46;;;;;;;11.95;8.30;;;8.30;99.90;;;;;;5078912;28;20180;-72
2022/02/12 12:01:21;;;;;;;15.18;9.20;;;8.80;99.90;;;;;;5080218;28;20604;-73
2022/02/12 12:04:14;;;;;;;9.88;8.90;;;8.70;99.90;;;;;;5079861;28;20630;-73
2022/02/12 12:07:02;;;;;;;10.80;9.02;;;8.70;99.90;;;;;;5079465;28;20245;-73
2022/02/12 12:09:31;;;;;;;11.93;9.30;;;8.80;99.90;;;;;;5079058;28;20203;-72
2022/02/12 12:12:15;;;;;;;13.30;9.27;;;9.30;99.90;;;;;;5079034;28;20680;-72
2022/02/12 12:14:42;;;;;;;12.20;9.13;;;9.20;99.90;;;;;;5077386;28;20208;-72
2022/02/12 12:17:08;;;;;;;9.33;8.53;;;9.20;99.90;;;;;;5078088;28;21084;-73
2022/02/12 12:19:38;;;;;;;13.35;9.98;;;9.20;99.90;;;;;;5079641;28;21211;-74
2022/02/12 12:22:07;;;;;;;11.07;8.55;;;8.60;99.90;;;;;;5078729;28;20200;-74
2022/02/12 12:24:34;;;;;;;10.32;8.60;;;9.00;99.90;;;;;;5079735;28;20192;-74
2022/02/12 12:27:01;;;;;;;9.05;8.07;;;9.50;99.90;;;;;;5077850;28;20200;-74
2022/02/12 12:32:22;;;;;;;10.20;9.27;;;9.50;99.90;;;;;;5079343;28;20688;-74
2022/02/12 12:34:52;;;;;;;14.93;9.93;;;9.60;99.90;;;;;;5078716;28;20336;-74
2022/02/12 12:37:20;;;;;;;13.00;9.83;;;10.10;99.90;;;;;;5077615;28;20640;-74
2022/02/12 12:39:47;;;;;;;10.03;9.03;;;9.90;99.90;;;;;;5076036;28;21013;-74
2022/02/12 12:42:16;;;;;;;11.27;9.20;;;10.30;99.90;;;;;;5077442;28;20627;-74
2022/02/12 12:44:44;;;;;;;11.70;9.97;;;10.10;99.90;;;;;;5076132;28;20680;-74
2022/02/12 12:47:11;;;;;;;16.03;9.73;;;10.20;99.90;;;;;;5077205;28;21244;-74
2022/02/12 12:49:40;;;;;;;12.10;8.83;;;10.90;99.90;;;;;;5077761;28;20771;-74
2022/02/12 12:52:16;;;;;;;9.73;8.80;;;10.20;99.90;;;;;;5077591;28;20637;-74